createdAt,value
2019-03-06T00:02:47.750Z,90.16
2019-03-06T00:07:53.160Z,89.99
2019-03-06T00:12:58.980Z,89.17
2019-03-06T00:18:05.267Z,89.33
2019-03-06T00:23:10.450Z,89.95
2019-03-06T00:28:15.876Z,90.04
2019-03-06T00:33:20.949Z,89.88
2019-03-06T00:38:26.003Z,89.66
2019-03-06T00:43:31.063Z,89.92
2019-03-06T00:48:36.192Z,89.75
2019-03-06T00:53:41.249Z,89.44
2019-03-06T00:58:46.424Z,89.89
2019-03-06T01:03:51.883Z,90.12
2019-03-06T01:08:57.021Z,89.75
2019-03-06T01:14:02.146Z,89.89
2019-03-06T01:19:08.305Z,90.31
2019-03-06T01:24:13.702Z,90.36
2019-03-06T01:29:19.501Z,90.53
2019-03-06T01:34:39.327Z,90.53
2019-03-06T01:40:02.079Z,90.90
2019-03-06T01:45:09.520Z,90.68
2019-03-06T01:50:16.504Z,91.24
2019-03-06T01:55:22.198Z,91.36
2019-03-06T02:00:27.366Z,91.37
2019-03-06T02:05:33.802Z,91.54
2019-03-06T02:10:41.505Z,91.06
2019-03-06T02:15:48.199Z,91.29
2019-03-06T02:20:53.607Z,91.47
2019-03-06T02:25:59.692Z,91.72
2019-03-06T02:31:04.852Z,91.91
2019-03-06T02:36:09.970Z,91.90
2019-03-06T02:41:15.143Z,91.88
2019-03-06T02:46:20.666Z,91.63
2019-03-06T02:51:25.727Z,92.06
2019-03-06T02:56:31.126Z,92.73
2019-03-06T03:01:49.749Z,92.59
2019-03-06T03:07:01.207Z,92.32
2019-03-06T03:12:06.331Z,91.95
2019-03-06T03:17:11.847Z,91.89
2019-03-06T03:22:17.294Z,91.72
2019-03-06T03:27:22.711Z,91.89
2019-03-06T03:32:27.784Z,91.64
2019-03-06T03:37:33.416Z,91.57
2019-03-06T03:42:39.353Z,91.73
2019-03-06T03:47:44.517Z,91.63
2019-03-06T03:52:49.648Z,91.62
2019-03-06T03:57:54.810Z,91.78
2019-03-06T04:02:59.878Z,91.87
2019-03-06T04:08:06.360Z,92.01
2019-03-06T04:13:11.610Z,91.71
2019-03-06T04:18:16.775Z,91.26
2019-03-06T04:23:23.659Z,91.74
2019-03-06T04:28:30.250Z,91.75
2019-03-06T04:33:35.762Z,91.94
2019-03-06T04:38:40.923Z,91.99
2019-03-06T04:43:46.386Z,92.15
2019-03-06T04:48:51.468Z,92.09
2019-03-06T04:53:56.632Z,92.30
2019-03-06T04:59:02.059Z,92.24
2019-03-06T05:04:07.223Z,92.71
2019-03-06T05:09:12.745Z,92.60
2019-03-06T05:14:18.280Z,92.49
2019-03-06T05:19:23.452Z,92.09
2019-03-06T05:24:28.622Z,92.30
2019-03-06T05:29:34.718Z,92.52
2019-03-06T05:34:40.504Z,92.81
2019-03-06T05:39:45.682Z,92.38
2019-03-06T05:44:50.769Z,92.06
2019-03-06T05:49:55.924Z,91.66
2019-03-06T05:55:01.374Z,91.81
2019-03-06T06:00:07.415Z,92.04
2019-03-06T06:05:13.605Z,92.16
2019-03-06T06:10:19.561Z,92.35
2019-03-06T06:15:25.341Z,92.44
2019-03-06T06:20:31.522Z,92.51
2019-03-06T06:25:37.282Z,92.49
2019-03-06T06:30:42.525Z,92.39
2019-03-06T06:35:47.790Z,92.60
2019-03-06T06:40:52.964Z,92.33
2019-03-06T06:45:58.471Z,91.55
2019-03-06T06:51:29.920Z,91.33
2019-03-06T06:57:24.597Z,91.00
2019-03-06T07:03:15.238Z,90.67
2019-03-06T07:08:42.500Z,90.82
2019-03-06T07:13:58.725Z,90.77
2019-03-06T07:19:22.869Z,90.36
2019-03-06T07:24:47.013Z,89.77
2019-03-06T07:30:08.022Z,89.31
2019-03-06T07:36:12.661Z,89.74
2019-03-06T07:41:36.847Z,89.12
2019-03-06T07:46:55.035Z,87.96
2019-03-06T07:52:17.951Z,87.33
2019-03-06T07:57:25.685Z,87.90
2019-03-06T08:02:57.093Z,88.04
2019-03-06T08:08:03.473Z,86.11
2019-03-06T08:13:17.647Z,86.41
2019-03-06T08:18:44.599Z,86.15
2019-03-06T08:24:26.861Z,85.62
2019-03-06T08:29:32.057Z,84.79
2019-03-06T08:34:37.667Z,83.04
2019-03-06T08:39:42.830Z,83.12
2019-03-06T08:44:47.972Z,82.50
2019-03-06T08:50:15.274Z,82.32
2019-03-06T08:55:51.509Z,82.03
2019-03-06T09:01:27.707Z,79.62
2019-03-06T09:06:42.995Z,81.77
2019-03-06T09:12:02.015Z,79.00
2019-03-06T09:17:22.009Z,80.30
2019-03-06T09:22:50.010Z,79.64
2019-03-06T09:28:13.159Z,79.01
2019-03-06T09:33:36.643Z,78.15
2019-03-06T09:39:00.013Z,77.39
2019-03-06T09:44:10.525Z,77.22
2019-03-06T09:49:44.890Z,74.31
2019-03-06T09:55:01.023Z,74.70
2019-03-06T10:00:27.833Z,75.03
2019-03-06T10:05:40.261Z,75.48
2019-03-06T10:11:04.288Z,73.52
2019-03-06T10:16:20.880Z,73.06
2019-03-06T10:21:27.532Z,72.41
2019-03-06T10:26:32.763Z,70.93
2019-03-06T10:31:38.762Z,71.53
2019-03-06T10:36:44.961Z,73.31
2019-03-06T10:41:50.444Z,71.03
2019-03-06T10:46:56.069Z,70.85
2019-03-06T10:52:01.682Z,71.27
2019-03-06T10:57:07.046Z,70.79
2019-03-06T11:02:14.715Z,69.26
2019-03-06T11:07:20.786Z,68.52
2019-03-06T11:12:26.519Z,68.75
2019-03-06T11:17:32.716Z,69.22
2019-03-06T11:22:38.624Z,68.83
2019-03-06T11:27:44.001Z,66.72
2019-03-06T11:32:54.365Z,66.96
2019-03-06T11:37:56.662Z,68.15
2019-03-06T11:43:02.868Z,67.40
2019-03-06T11:48:08.997Z,65.84
2019-03-06T11:53:14.745Z,63.66
2019-03-06T11:58:20.241Z,63.09
2019-03-06T12:03:26.476Z,61.76
2019-03-06T12:08:31.830Z,62.73
2019-03-06T12:13:37.454Z,62.92
2019-03-06T12:18:42.977Z,62.74
2019-03-06T12:23:48.221Z,63.10
2019-03-06T12:28:53.793Z,60.20
2019-03-06T12:33:59.033Z,60.16
2019-03-06T12:39:05.887Z,57.91
2019-03-06T12:44:12.803Z,57.96
2019-03-06T12:49:18.886Z,57.69
2019-03-06T12:54:24.206Z,54.24
2019-03-06T12:59:31.252Z,54.83
2019-03-06T13:04:36.629Z,54.15
2019-03-06T13:09:41.874Z,55.42
2019-03-06T13:14:47.983Z,55.37
2019-03-06T13:19:53.329Z,54.80
2019-03-06T13:24:58.572Z,54.23
2019-03-06T13:30:04.414Z,54.69
2019-03-06T13:35:09.941Z,54.62
2019-03-06T13:40:18.481Z,56.23
2019-03-06T13:45:22.564Z,55.37
2019-03-06T13:50:28.219Z,57.01
2019-03-06T13:55:33.764Z,56.64
2019-03-06T14:00:39.647Z,57.59
2019-03-06T14:05:45.381Z,57.68
2019-03-06T14:10:51.982Z,57.92
2019-03-06T14:15:59.696Z,56.53
2019-03-06T14:21:05.725Z,56.94
2019-03-06T14:26:12.367Z,56.29
2019-03-06T14:31:18.289Z,55.67
2019-03-06T14:36:23.825Z,55.79
2019-03-06T14:41:29.878Z,54.97
2019-03-06T14:46:35.496Z,55.18
2019-03-06T14:51:41.130Z,53.75
2019-03-06T14:56:46.557Z,56.94
2019-03-06T15:01:52.979Z,58.26
2019-03-06T15:06:58.209Z,59.64
2019-03-06T15:12:03.457Z,59.73
2019-03-06T15:17:08.732Z,60.14
2019-03-06T15:22:13.977Z,61.36
2019-03-06T15:27:19.818Z,60.53
2019-03-06T15:32:25.735Z,61.71
2019-03-06T15:37:31.070Z,62.05
2019-03-06T15:42:38.488Z,62.75
2019-03-06T15:47:44.092Z,63.43
2019-03-06T15:52:50.340Z,63.87
2019-03-06T15:57:55.997Z,64.21
2019-03-06T16:03:01.449Z,63.92
2019-03-06T16:08:07.481Z,64.21
2019-03-06T16:13:14.058Z,64.02
2019-03-06T16:18:20.523Z,63.87
2019-03-06T16:23:25.847Z,63.46
2019-03-06T16:28:31.360Z,63.78
2019-03-06T16:33:36.672Z,63.52
2019-03-06T16:38:42.277Z,63.52
2019-03-06T16:43:47.507Z,63.65
2019-03-06T16:48:52.932Z,63.38
2019-03-06T16:53:58.094Z,63.37
2019-03-06T16:59:04.900Z,63.98
2019-03-06T17:04:11.691Z,63.94
2019-03-06T17:09:17.707Z,63.85
2019-03-06T17:14:24.362Z,64.62
2019-03-06T17:19:30.989Z,64.66
2019-03-06T17:24:36.496Z,64.58
2019-03-06T17:29:41.735Z,64.54
2019-03-06T17:34:46.975Z,64.71
2019-03-06T17:39:52.211Z,64.44
2019-03-06T17:44:57.530Z,64.37
2019-03-06T17:50:04.572Z,63.99
2019-03-06T17:55:11.970Z,62.42
2019-03-06T18:00:18.765Z,62.27
2019-03-06T18:05:24.104Z,61.38
2019-03-06T18:10:29.423Z,61.74
2019-03-06T18:15:34.757Z,60.63
2019-03-06T18:20:40.977Z,60.45
2019-03-06T18:25:46.155Z,61.12
2019-03-06T18:30:51.488Z,60.76
2019-03-06T18:35:56.757Z,61.18
2019-03-06T18:41:02.893Z,60.66
2019-03-06T18:46:08.986Z,60.81
2019-03-06T18:51:14.891Z,60.91
2019-03-06T18:56:20.442Z,60.78
2019-03-06T19:01:26.931Z,60.98
2019-03-06T19:06:32.545Z,61.79
2019-03-06T19:11:39.024Z,61.76
2019-03-06T19:16:44.638Z,61.92
2019-03-06T19:21:49.877Z,62.08
2019-03-06T19:26:55.166Z,61.97
2019-03-06T19:32:00.413Z,62.24
2019-03-06T19:37:06.179Z,62.49
2019-03-06T19:42:11.631Z,62.64
2019-03-06T19:47:17.807Z,62.51
2019-03-06T19:52:23.154Z,62.88
2019-03-06T19:57:29.957Z,62.92
2019-03-06T20:02:35.465Z,62.93
2019-03-06T20:07:40.725Z,62.67
2019-03-06T20:12:45.973Z,62.11
2019-03-06T20:17:51.562Z,62.24
2019-03-06T20:22:56.722Z,61.90
2019-03-06T20:28:02.366Z,62.26
2019-03-06T20:33:08.033Z,62.50
2019-03-06T20:38:13.446Z,62.58
2019-03-06T20:43:18.693Z,62.81
2019-03-06T20:48:24.264Z,63.06
2019-03-06T20:53:29.435Z,62.50
2019-03-06T20:58:35.628Z,62.13
2019-03-06T21:03:41.389Z,61.60
2019-03-06T21:08:46.557Z,62.49
2019-03-06T21:13:52.177Z,61.96
2019-03-06T21:18:58.090Z,62.26
2019-03-06T21:24:03.398Z,62.88
2019-03-06T21:29:09.600Z,62.64
2019-03-06T21:34:16.725Z,62.95
2019-03-06T21:39:24.067Z,62.77
2019-03-06T21:44:29.307Z,62.68
2019-03-06T21:49:34.605Z,63.36
2019-03-06T21:54:41.319Z,62.99
2019-03-06T21:59:46.745Z,63.40
2019-03-06T22:04:52.192Z,64.18
2019-03-06T22:09:57.456Z,64.12
2019-03-06T22:15:05.775Z,64.19
2019-03-06T22:20:12.056Z,64.81
2019-03-06T22:25:17.969Z,64.57
2019-03-06T22:30:23.561Z,63.82
2019-03-06T22:35:29.091Z,64.22
2019-03-06T22:40:34.540Z,63.98
2019-03-06T22:45:40.071Z,63.55
2019-03-06T22:50:45.375Z,63.43
2019-03-06T22:55:50.547Z,63.01
2019-03-06T23:01:06.546Z,63.06
2019-03-06T23:06:13.747Z,63.33
2019-03-06T23:11:18.994Z,63.22
2019-03-06T23:16:25.092Z,63.04
2019-03-06T23:21:30.259Z,62.80
2019-03-06T23:26:42.674Z,62.87
2019-03-06T23:31:42.875Z,63.21
2019-03-06T23:36:48.102Z,64.06
2019-03-06T23:41:53.925Z,64.04
2019-03-06T23:47:00.023Z,64.21
2019-03-06T23:52:13.982Z,64.17
2019-03-06T23:57:19.212Z,64.06
